メインページ
METAR-TAF:

METAR-TAF

空港 :

Oswego County Airport

フルトン, ニューヨーク, アメリカ合衆国

緯度: 43-21-03N, 経度: 076-23-17W, 海抜: 145m

現時点の気象観測

当レポートは44分前の05:54(UTC)に作成
西/南西の風 3kt
気温 6°C
湿度 87%
気圧 1015 hPa
視程: 11.3km
高度300ftの曇り

METAR: KFZY 040554Z AUTO 24003KT 7SM OVC003 06/04 A2998 RMK AO2 SLP155 60000 T00560044 10061 20056 58001

時間: 02:38 (06:38 UTC)


TAF: 見つかりません

4,000以上の空港の気象観測と天気予報(METAR報とTAF報)

利用可能な観測所は地図上に黄色い丸と赤い丸で示す。

丸の上にカーソルを重ねると観測所名を参照できる。

次にクリックすると気象観測と天気予報を参照できる。

マップの切り替え:黒色「×」印の緑ボタンをクリックして拡大、「-」印の緑ボタンをクリックして縮小、緑色の三角印をクリックして隣りの地図に切り替え


METAR-TAF: